Robert E. Mcallister — WDC8669 — position and weather

sailwx.info

Track history (hours):
 
Tides and Currents Weather Stations Pressure Air Temp Water Temp Dewpoint Dewpoint Depression Visibility Wind Speed Wind Dir Waves Ship Positions

Robert E. Mcallister

Owner: McAllister Towing & Transportation, Staten Island, NY. More information available from US FCC via Universal Licensing System and Coast Guard Vessel Documentation Center.

Last reported at 2016-Sep-27 19:33 UTC. Time now 2016-Sep-27 22:22 UTC.
Position N 40°38' W 074°10'.

Length 34 m; draft 4.3 m.

Type: Tug. MMSI: 367091120.

Date/timePositionNaut miles runAvg speedWind from/ knotsBaromVisibWave heightAir tempDewpointWater temp
2016-Sep-27 19:33N 40°38' W 074°10'0 0.0
2016-Sep-27 14:32N 40°38' W 074°10'0 0.0
2016-Sep-27 13:32N 40°38' W 074°10'0 0.0
2016-Sep-27 10:33N 40°38' W 074°10'0 0.0
2016-Sep-26 20:33N 40°38' W 074°10'2 1.7
2016-Sep-26 19:33N 40°40' W 074°09'3 0.8
2016-Sep-26 15:33N 40°40' W 074°04'0 0.0
2016-Sep-26 13:33N 40°40' W 074°04'0 0.0
2016-Sep-26 11:33N 40°40' W 074°04'3 1.0
2016-Sep-26 08:33N 40°39' W 074°08'2 0.3
2016-Sep-26 02:33N 40°38' W 074°10'0 0.0
2016-Sep-26 01:33N 40°38' W 074°10'0 0.0
2016-Sep-26 00:33N 40°38' W 074°10'0 0.0
2016-Sep-25 21:33N 40°38' W 074°10'0 0.0
2016-Sep-25 17:33N 40°38' W 074°10'0 0.3
2016-Sep-25 16:33N 40°39' W 074°10'0 0.3
2016-Sep-25 15:33N 40°38' W 074°10'0 0.0
2016-Sep-25 14:33N 40°38' W 074°10'0 0.0
2016-Sep-25 12:33N 40°38' W 074°10'0 0.1
2016-Sep-25 11:33N 40°38' W 074°10'1 0.9
2016-Sep-25 10:33N 40°39' W 074°09'2 1.8
2016-Sep-25 09:33N 40°41' W 074°09'3 1.3
2016-Sep-25 07:33N 40°38' W 074°10'0 0.0
2016-Sep-25 04:33N 40°38' W 074°10'0 0.0
2016-Sep-25 00:33N 40°38' W 074°10'0 0.0
2016-Sep-24 22:33N 40°38' W 074°10'0 0.0
2016-Sep-24 21:33N 40°38' W 074°10'0 0.0
2016-Sep-24 19:32N 40°38' W 074°10'3 3.4
2016-Sep-24 18:32N 40°42' W 074°09'3 3.4
2016-Sep-24 17:33N 40°38' W 074°08'2 1.7
2016-Sep-24 16:33N 40°38' W 074°10'0 0.0
2016-Sep-24 14:33N 40°38' W 074°10'6 2.3
2016-Sep-24 12:07N 40°33' W 074°13'6 3.6
2016-Sep-24 10:33N 40°38' W 074°10'0 0.0
2016-Sep-24 09:33N 40°38' W 074°10'3 0.5
2016-Sep-24 03:33N 40°39' W 074°06'3 2.7
2016-Sep-24 02:33N 40°41' W 074°09'2 2.4
2016-Sep-24 01:33N 40°38' W 074°10'0 0.0
2016-Sep-24 00:33N 40°38' W 074°10'0 0.0
2016-Sep-23 19:33N 40°38' W 074°10'0 0.0
2016-Sep-23 17:33N 40°38' W 074°10'0 0.0
2016-Sep-23 16:33N 40°38' W 074°10'0 0.0
2016-Sep-23 15:33N 40°38' W 074°10'0 0.0
2016-Sep-23 13:33N 40°38' W 074°10'4 1.1
2016-Sep-23 09:33N 40°39' W 074°04'4 1.4
2016-Sep-23 06:33N 40°38' W 074°10'0 0.0
2016-Sep-23 04:33N 40°38' W 074°10'0 0.0
2016-Sep-23 03:33N 40°38' W 074°10'0 0.0
2016-Sep-23 02:33N 40°38' W 074°10'3 3.0
2016-Sep-23 01:33N 40°41' W 074°08'1 0.8
2016-Sep-23 00:33N 40°40' W 074°08'1 0.8
2016-Sep-22 23:33N 40°40' W 074°09'3 0.8
2016-Sep-22 20:33N 40°39' W 074°05'2 0.2
2016-Sep-22 12:33N 40°38' W 074°04'4 0.5
2016-Sep-22 04:33N 40°38' W 074°10'1 1.0
2016-Sep-22 03:33N 40°39' W 074°09'1 0.3
2016-Sep-22 00:33N 40°38' W 074°10'0 0.0
2016-Sep-21 23:33N 40°38' W 074°10'2 1.8
2016-Sep-21 22:33N 40°40' W 074°08'1 0.4
2016-Sep-21 19:32N 40°41' W 074°08'3 1.0
2016-Sep-21 16:33N 40°38' W 074°10'2 0.3
2016-Sep-21 09:33N 40°38' W 074°12'0 0.2
2016-Sep-21 08:31N 40°38' W 074°12'11 3.9
2016-Sep-21 05:33N 40°42' W 073°58'10 4.8
2016-Sep-21 03:33N 40°38' W 074°10'0 0.0
2016-Sep-21 02:33N 40°38' W 074°10'0 0.0
2016-Sep-20 17:33N 40°38' W 074°10'0 0.0
2016-Sep-20 14:33N 40°38' W 074°10'0 0.0
2016-Sep-20 13:33N 40°38' W 074°10'2 0.8
2016-Sep-20 10:33N 40°40' W 074°08'2 1.1
2016-Sep-20 08:33N 40°38' W 074°10'0 0.0
2016-Sep-20 07:33N 40°38' W 074°10'0 0.0
2016-Sep-20 06:33N 40°38' W 074°10'1 0.4
2016-Sep-20 02:33N 40°38' W 074°12'3 0.9
2016-Sep-19 23:32N 40°36' W 074°12'7 1.9
2016-Sep-19 19:33N 40°36' W 074°03'4 4.2
2016-Sep-19 18:33N 40°40' W 074°04'0 0.0
2016-Sep-19 16:33N 40°40' W 074°04'1 0.3
2016-Sep-19 14:33N 40°39' W 074°04'1 1.2
2016-Sep-19 13:30N 40°39' W 074°06'0 0.2
2016-Sep-19 12:33N 40°39' W 074°06'0 0.0
2016-Sep-19 11:33N 40°39' W 074°06'1 0.6
2016-Sep-19 09:33N 40°39' W 074°07'1 0.3
2016-Sep-19 07:33N 40°39' W 074°08'1 0.9
2016-Sep-19 06:09N 40°38' W 074°10'0 0.0
2016-Sep-19 03:19N 40°38' W 074°10'0 0.0
2016-Sep-19 02:17N 40°38' W 074°10'1 0.7
2016-Sep-19 00:33N 40°39' W 074°09'8 1.6
2016-Sep-18 19:33N 40°43' W 073°59'5 1.1
2016-Sep-18 15:33N 40°40' W 074°04'2 2.4
2016-Sep-18 14:34N 40°42' W 074°02'2 0.6
2016-Sep-18 10:33N 40°40' W 074°04'0 0.2
2016-Sep-18 09:33N 40°40' W 074°04'0 0.0
2016-Sep-18 02:33N 40°40' W 074°04'0 0.0
2016-Sep-18 01:33N 40°40' W 074°04'0 0.0
2016-Sep-18 00:33N 40°40' W 074°04'0 0.0
2016-Sep-17 22:33N 40°40' W 074°04'0 0.3
2016-Sep-17 21:33N 40°40' W 074°05'0 0.2
2016-Sep-17 20:33N 40°40' W 074°04'  
Track history (hours):
 
Tides and Currents Weather Stations Pressure Air Temp Water Temp Dewpoint Dewpoint Depression Visibility Wind Speed Wind Dir Waves Ship Positions

Robert E. Mcallister

Owner: McAllister Towing & Transportation, Staten Island, NY. More information available from US FCC via Universal Licensing System and Coast Guard Vessel Documentation Center.

Last reported at 2016-Sep-27 19:33 UTC. Time now 2016-Sep-27 22:22 UTC.
Position N 40°38' W 074°10'.

Length 34 m; draft 4.3 m.

Type: Tug. MMSI: 367091120.

Date/timePositionNaut miles runAvg speedWind from/ knotsBaromVisibWave heightAir tempDewpointWater temp
2016-Sep-27 19:33N 40°38' W 074°10'0 0.0
2016-Sep-27 14:32N 40°38' W 074°10'0 0.0
2016-Sep-27 13:32N 40°38' W 074°10'0 0.0
2016-Sep-27 10:33N 40°38' W 074°10'0 0.0
2016-Sep-26 20:33N 40°38' W 074°10'2 1.7
2016-Sep-26 19:33N 40°40' W 074°09'3 0.8
2016-Sep-26 15:33N 40°40' W 074°04'0 0.0
2016-Sep-26 13:33N 40°40' W 074°04'0 0.0
2016-Sep-26 11:33N 40°40' W 074°04'3 1.0
2016-Sep-26 08:33N 40°39' W 074°08'2 0.3
2016-Sep-26 02:33N 40°38' W 074°10'0 0.0
2016-Sep-26 01:33N 40°38' W 074°10'0 0.0
2016-Sep-26 00:33N 40°38' W 074°10'0 0.0
2016-Sep-25 21:33N 40°38' W 074°10'0 0.0
2016-Sep-25 17:33N 40°38' W 074°10'0 0.3
2016-Sep-25 16:33N 40°39' W 074°10'0 0.3
2016-Sep-25 15:33N 40°38' W 074°10'0 0.0
2016-Sep-25 14:33N 40°38' W 074°10'0 0.0
2016-Sep-25 12:33N 40°38' W 074°10'0 0.1
2016-Sep-25 11:33N 40°38' W 074°10'1 0.9
2016-Sep-25 10:33N 40°39' W 074°09'2 1.8
2016-Sep-25 09:33N 40°41' W 074°09'3 1.3
2016-Sep-25 07:33N 40°38' W 074°10'0 0.0
2016-Sep-25 04:33N 40°38' W 074°10'0 0.0
2016-Sep-25 00:33N 40°38' W 074°10'0 0.0
2016-Sep-24 22:33N 40°38' W 074°10'0 0.0
2016-Sep-24 21:33N 40°38' W 074°10'0 0.0
2016-Sep-24 19:32N 40°38' W 074°10'3 3.4
2016-Sep-24 18:32N 40°42' W 074°09'3 3.4
2016-Sep-24 17:33N 40°38' W 074°08'2 1.7
2016-Sep-24 16:33N 40°38' W 074°10'0 0.0
2016-Sep-24 14:33N 40°38' W 074°10'6 2.3
2016-Sep-24 12:07N 40°33' W 074°13'6 3.6
2016-Sep-24 10:33N 40°38' W 074°10'0 0.0
2016-Sep-24 09:33N 40°38' W 074°10'3 0.5
2016-Sep-24 03:33N 40°39' W 074°06'3 2.7
2016-Sep-24 02:33N 40°41' W 074°09'2 2.4
2016-Sep-24 01:33N 40°38' W 074°10'0 0.0
2016-Sep-24 00:33N 40°38' W 074°10'0 0.0
2016-Sep-23 19:33N 40°38' W 074°10'0 0.0
2016-Sep-23 17:33N 40°38' W 074°10'0 0.0
2016-Sep-23 16:33N 40°38' W 074°10'0 0.0
2016-Sep-23 15:33N 40°38' W 074°10'0 0.0
2016-Sep-23 13:33N 40°38' W 074°10'4 1.1
2016-Sep-23 09:33N 40°39' W 074°04'4 1.4
2016-Sep-23 06:33N 40°38' W 074°10'0 0.0
2016-Sep-23 04:33N 40°38' W 074°10'0 0.0
2016-Sep-23 03:33N 40°38' W 074°10'0 0.0
2016-Sep-23 02:33N 40°38' W 074°10'3 3.0
2016-Sep-23 01:33N 40°41' W 074°08'1 0.8
2016-Sep-23 00:33N 40°40' W 074°08'1 0.8
2016-Sep-22 23:33N 40°40' W 074°09'3 0.8
2016-Sep-22 20:33N 40°39' W 074°05'2 0.2
2016-Sep-22 12:33N 40°38' W 074°04'4 0.5
2016-Sep-22 04:33N 40°38' W 074°10'1 1.0
2016-Sep-22 03:33N 40°39' W 074°09'1 0.3
2016-Sep-22 00:33N 40°38' W 074°10'0 0.0
2016-Sep-21 23:33N 40°38' W 074°10'2 1.8
2016-Sep-21 22:33N 40°40' W 074°08'1 0.4
2016-Sep-21 19:32N 40°41' W 074°08'3 1.0
2016-Sep-21 16:33N 40°38' W 074°10'2 0.3
2016-Sep-21 09:33N 40°38' W 074°12'0 0.2
2016-Sep-21 08:31N 40°38' W 074°12'11 3.9
2016-Sep-21 05:33N 40°42' W 073°58'10 4.8
2016-Sep-21 03:33N 40°38' W 074°10'0 0.0
2016-Sep-21 02:33N 40°38' W 074°10'0 0.0
2016-Sep-20 17:33N 40°38' W 074°10'0 0.0
2016-Sep-20 14:33N 40°38' W 074°10'0 0.0
2016-Sep-20 13:33N 40°38' W 074°10'2 0.8
2016-Sep-20 10:33N 40°40' W 074°08'2 1.1
2016-Sep-20 08:33N 40°38' W 074°10'0 0.0
2016-Sep-20 07:33N 40°38' W 074°10'0 0.0
2016-Sep-20 06:33N 40°38' W 074°10'1 0.4
2016-Sep-20 02:33N 40°38' W 074°12'3 0.9
2016-Sep-19 23:32N 40°36' W 074°12'7 1.9
2016-Sep-19 19:33N 40°36' W 074°03'4 4.2
2016-Sep-19 18:33N 40°40' W 074°04'0 0.0
2016-Sep-19 16:33N 40°40' W 074°04'1 0.3
2016-Sep-19 14:33N 40°39' W 074°04'1 1.2
2016-Sep-19 13:30N 40°39' W 074°06'0 0.2
2016-Sep-19 12:33N 40°39' W 074°06'0 0.0
2016-Sep-19 11:33N 40°39' W 074°06'1 0.6
2016-Sep-19 09:33N 40°39' W 074°07'1 0.3
2016-Sep-19 07:33N 40°39' W 074°08'1 0.9
2016-Sep-19 06:09N 40°38' W 074°10'0 0.0
2016-Sep-19 03:19N 40°38' W 074°10'0 0.0
2016-Sep-19 02:17N 40°38' W 074°10'1 0.7
2016-Sep-19 00:33N 40°39' W 074°09'8 1.6
2016-Sep-18 19:33N 40°43' W 073°59'5 1.1
2016-Sep-18 15:33N 40°40' W 074°04'2 2.4
2016-Sep-18 14:34N 40°42' W 074°02'2 0.6
2016-Sep-18 10:33N 40°40' W 074°04'0 0.2
2016-Sep-18 09:33N 40°40' W 074°04'0 0.0
2016-Sep-18 02:33N 40°40' W 074°04'0 0.0
2016-Sep-18 01:33N 40°40' W 074°04'0 0.0
2016-Sep-18 00:33N 40°40' W 074°04'0 0.0
2016-Sep-17 22:33N 40°40' W 074°04'0 0.3
2016-Sep-17 21:33N 40°40' W 074°05'0 0.2
2016-Sep-17 20:33N 40°40' W 074°04'  

Dump ship's entire track history